createdAt,value
2023-06-15T00:02:17.909Z,6.28
2023-06-15T00:04:44.564Z,5.60
2023-06-15T00:07:11.254Z,5.70
2023-06-15T00:09:38.017Z,6.07
2023-06-15T00:12:04.789Z,6.20
2023-06-15T00:14:31.784Z,6.63
2023-06-15T00:16:58.821Z,5.90
2023-06-15T00:19:25.583Z,6.53
2023-06-15T00:21:54.924Z,6.15
2023-06-15T00:24:21.835Z,6.23
2023-06-15T00:26:48.479Z,6.40
2023-06-15T00:29:15.074Z,5.65
2023-06-15T00:31:41.670Z,7.25
2023-06-15T00:34:08.179Z,6.97
2023-06-15T00:36:34.689Z,6.93
2023-06-15T00:39:01.261Z,7.05
2023-06-15T00:41:27.970Z,6.40
2023-06-15T00:43:54.645Z,5.88
2023-06-15T00:46:21.722Z,5.88
2023-06-15T00:48:48.477Z,6.20
2023-06-15T00:51:16.188Z,7.30
2023-06-15T00:53:44.913Z,6.38
2023-06-15T00:56:11.798Z,6.05
2023-06-15T00:58:38.555Z,5.55
2023-06-15T01:01:05.101Z,6.00
2023-06-15T01:03:32.374Z,6.80
2023-06-15T01:06:01.032Z,6.75
2023-06-15T01:08:28.176Z,6.57
2023-06-15T01:10:57.340Z,6.72
2023-06-15T01:13:24.061Z,6.20
2023-06-15T01:15:56.124Z,6.20
2023-06-15T01:18:25.337Z,6.72
2023-06-15T01:20:54.998Z,6.38
2023-06-15T01:23:41.803Z,6.03
2023-06-15T01:26:09.675Z,6.03
2023-06-15T01:28:42.071Z,6.38
2023-06-15T01:31:10.674Z,6.25
2023-06-15T01:33:51.005Z,6.80
2023-06-15T01:36:19.358Z,7.30
2023-06-15T01:38:49.175Z,6.73
2023-06-15T01:41:19.545Z,6.65
2023-06-15T01:43:46.777Z,6.95
2023-06-15T01:46:13.649Z,6.32
2023-06-15T01:48:40.975Z,6.70
2023-06-15T01:51:07.564Z,6.70
2023-06-15T01:53:34.327Z,6.97
2023-06-15T01:56:01.516Z,6.85
2023-06-15T01:58:28.109Z,6.80
2023-06-15T02:00:54.846Z,7.13
2023-06-15T02:03:21.431Z,6.63
2023-06-15T02:05:48.118Z,6.60
2023-06-15T02:08:14.739Z,6.60
2023-06-15T02:10:41.477Z,7.03
2023-06-15T02:13:09.204Z,6.40
2023-06-15T02:15:37.765Z,6.97
2023-06-15T02:18:08.455Z,6.63
2023-06-15T02:20:35.210Z,6.60
2023-06-15T02:23:03.390Z,7.00
2023-06-15T02:25:31.589Z,5.70
2023-06-15T02:27:58.144Z,6.63
2023-06-15T02:30:26.683Z,6.80
2023-06-15T02:32:56.680Z,6.95
2023-06-15T02:35:23.344Z,7.20
2023-06-15T02:37:49.915Z,7.53
2023-06-15T02:40:16.461Z,7.20
2023-06-15T02:42:42.967Z,6.65
2023-06-15T02:45:10.001Z,6.63
2023-06-15T02:47:37.194Z,7.40
2023-06-15T02:50:07.746Z,6.18
2023-06-15T02:52:34.621Z,7.50
2023-06-15T02:55:01.711Z,6.05
2023-06-15T02:57:28.372Z,5.97
2023-06-15T02:59:55.217Z,6.20
2023-06-15T03:02:22.508Z,6.22
2023-06-15T03:04:52.986Z,6.70
2023-06-15T03:07:21.638Z,6.50
2023-06-15T03:09:49.198Z,7.00
2023-06-15T03:12:15.948Z,7.57
2023-06-15T03:14:45.489Z,7.47
2023-06-15T03:17:14.100Z,7.00
2023-06-15T03:19:41.389Z,7.50
2023-06-15T03:22:10.973Z,6.53
2023-06-15T03:24:37.793Z,5.43
2023-06-15T03:27:07.711Z,6.40
2023-06-15T03:29:38.244Z,7.20
2023-06-15T03:32:06.876Z,6.65
2023-06-15T03:34:33.520Z,6.90
2023-06-15T03:37:00.085Z,7.25
2023-06-15T03:39:26.679Z,6.60
2023-06-15T03:41:53.204Z,7.40
2023-06-15T03:44:20.093Z,7.07
2023-06-15T03:46:47.203Z,6.60
2023-06-15T03:49:14.385Z,7.28
2023-06-15T03:51:41.017Z,6.78
2023-06-15T03:54:07.912Z,7.10
2023-06-15T03:56:34.426Z,7.40
2023-06-15T03:59:00.961Z,6.95
2023-06-15T04:01:27.546Z,7.18
2023-06-15T04:03:55.345Z,7.63
2023-06-15T04:06:26.083Z,6.93
2023-06-15T04:08:55.078Z,7.53
2023-06-15T04:11:22.835Z,7.18
2023-06-15T04:13:49.346Z,7.65
2023-06-15T04:16:15.897Z,8.85
2023-06-15T04:18:42.722Z,8.50
2023-06-15T04:21:09.260Z,8.13
2023-06-15T04:23:36.207Z,7.80
2023-06-15T04:26:04.434Z,8.10
2023-06-15T04:28:31.785Z,8.45
2023-06-15T04:31:11.964Z,8.40
2023-06-15T04:33:43.829Z,7.70
2023-06-15T04:36:13.320Z,7.97
2023-06-15T04:38:41.350Z,9.05
2023-06-15T04:41:09.050Z,7.68
2023-06-15T04:43:36.682Z,8.47
2023-06-15T04:46:03.359Z,8.10
2023-06-15T04:48:30.390Z,8.35
2023-06-15T04:50:57.646Z,8.43
2023-06-15T04:53:24.315Z,8.45
2023-06-15T04:55:50.855Z,8.00
2023-06-15T04:58:18.221Z,8.02
2023-06-15T05:00:45.208Z,7.70
2023-06-15T05:03:12.677Z,8.57
2023-06-15T05:05:39.424Z,8.02
2023-06-15T05:08:05.991Z,8.67
2023-06-15T05:10:45.212Z,8.52
2023-06-15T05:13:12.502Z,8.40
2023-06-15T05:15:38.989Z,8.40
2023-06-15T05:18:05.745Z,8.50
2023-06-15T05:20:32.422Z,7.83
2023-06-15T05:22:58.952Z,9.00
2023-06-15T05:25:25.613Z,7.70
2023-06-15T05:27:52.294Z,7.90
2023-06-15T05:30:19.011Z,7.68
2023-06-15T05:32:45.547Z,8.50
2023-06-15T05:35:12.212Z,8.50
2023-06-15T05:37:39.158Z,7.68
2023-06-15T05:40:06.397Z,7.70
2023-06-15T05:42:33.204Z,8.90
2023-06-15T05:44:59.739Z,8.93
2023-06-15T05:47:26.408Z,8.30
2023-06-15T05:49:53.021Z,7.75
2023-06-15T05:52:20.263Z,8.15
2023-06-15T05:54:47.603Z,8.13
2023-06-15T05:57:14.568Z,7.53
2023-06-15T05:59:41.236Z,8.32
2023-06-15T06:02:09.123Z,8.52
2023-06-15T06:04:35.851Z,9.20
2023-06-15T06:07:07.445Z,8.65
2023-06-15T06:09:34.934Z,9.00
2023-06-15T06:12:02.295Z,8.10
2023-06-15T06:14:29.359Z,7.38
2023-06-15T06:16:56.930Z,7.82
2023-06-15T06:19:24.532Z,8.48
2023-06-15T06:21:51.214Z,8.33
2023-06-15T06:24:21.176Z,8.27
2023-06-15T06:26:49.695Z,8.60
2023-06-15T06:29:16.333Z,8.48
2023-06-15T06:31:44.236Z,7.75
2023-06-15T06:34:11.867Z,8.43
2023-06-15T06:36:38.684Z,8.57
2023-06-15T06:39:05.262Z,7.30
2023-06-15T06:41:32.011Z,9.02
2023-06-15T06:43:58.541Z,8.38
2023-06-15T06:46:25.136Z,8.07
2023-06-15T06:48:51.828Z,7.10
2023-06-15T06:51:18.645Z,7.63
2023-06-15T06:53:45.627Z,8.07
2023-06-15T06:56:12.233Z,7.78
2023-06-15T06:58:38.886Z,6.97
2023-06-15T07:01:05.548Z,7.40
2023-06-15T07:03:32.334Z,8.35
2023-06-15T07:05:59.923Z,8.25
2023-06-15T07:08:26.500Z,6.65
2023-06-15T07:10:52.972Z,6.70
2023-06-15T07:13:19.449Z,7.15
2023-06-15T07:15:45.976Z,7.32
2023-06-15T07:18:15.549Z,6.75
2023-06-15T07:20:42.594Z,7.15
2023-06-15T07:23:09.214Z,6.80
2023-06-15T07:25:35.809Z,8.15
2023-06-15T07:28:03.103Z,6.72
2023-06-15T07:30:30.656Z,6.47
2023-06-15T07:32:57.386Z,7.50
2023-06-15T07:35:24.034Z,6.40
2023-06-15T07:37:50.555Z,7.22
2023-06-15T07:40:17.661Z,6.47
2023-06-15T07:42:45.073Z,7.45
2023-06-15T07:45:11.664Z,6.78
2023-06-15T07:47:38.650Z,5.90
2023-06-15T07:50:05.726Z,5.85
2023-06-15T07:52:32.295Z,7.00
2023-06-15T07:54:58.797Z,8.50
2023-06-15T07:57:25.436Z,6.88
2023-06-15T07:59:51.921Z,6.00
2023-06-15T08:02:18.516Z,6.93
2023-06-15T08:04:45.134Z,6.53
2023-06-15T08:07:12.075Z,5.70
2023-06-15T08:09:38.657Z,6.07
2023-06-15T08:12:05.756Z,5.87
2023-06-15T08:14:32.274Z,5.80
2023-06-15T08:16:58.792Z,5.95
2023-06-15T08:19:25.364Z,4.72
2023-06-15T08:21:51.917Z,5.78
2023-06-15T08:24:18.427Z,5.57
2023-06-15T08:26:45.689Z,6.03
2023-06-15T08:31:43.857Z,4.82
2023-06-15T08:34:11.171Z,4.43
2023-06-15T08:36:38.352Z,5.67
2023-06-15T08:39:04.965Z,4.25
2023-06-15T08:41:31.543Z,4.20
2023-06-15T08:43:58.507Z,4.72
2023-06-15T08:46:25.477Z,3.70
2023-06-15T08:48:53.865Z,4.07
2023-06-15T08:51:22.444Z,4.57
2023-06-15T08:53:49.420Z,3.83
2023-06-15T08:56:16.221Z,4.22
2023-06-15T08:58:53.006Z,3.92
2023-06-15T09:01:23.529Z,4.00
2023-06-15T09:03:54.721Z,3.63
2023-06-15T09:06:22.752Z,3.63
2023-06-15T09:08:49.819Z,3.55
2023-06-15T09:11:17.912Z,3.53
2023-06-15T09:13:44.775Z,3.90
2023-06-15T09:16:11.913Z,3.10
2023-06-15T09:18:54.097Z,3.58
2023-06-15T09:21:24.576Z,3.72
2023-06-15T09:23:51.357Z,3.28
2023-06-15T09:26:24.968Z,3.50
2023-06-15T09:28:55.754Z,4.00
2023-06-15T09:31:32.840Z,3.55
2023-06-15T09:34:10.628Z,3.90
2023-06-15T09:36:46.209Z,3.53
2023-06-15T09:39:14.872Z,3.83
2023-06-15T09:41:55.447Z,3.17
2023-06-15T09:44:23.484Z,3.97
2023-06-15T09:46:55.451Z,3.40
2023-06-15T09:49:29.269Z,3.50
2023-06-15T09:51:56.830Z,3.30
2023-06-15T09:54:29.311Z,2.97
2023-06-15T09:56:56.890Z,3.33
2023-06-15T09:59:23.462Z,3.00
2023-06-15T10:01:52.152Z,3.78
2023-06-15T10:04:22.746Z,3.73
2023-06-15T10:06:52.533Z,3.65
2023-06-15T10:09:29.974Z,3.45
2023-06-15T10:12:02.493Z,3.35
2023-06-15T10:14:55.474Z,3.20
2023-06-15T10:17:32.262Z,3.33
2023-06-15T10:20:10.132Z,3.72
2023-06-15T10:22:57.491Z,3.38
2023-06-15T10:25:25.852Z,3.70
2023-06-15T10:27:52.673Z,3.72
2023-06-15T10:30:32.518Z,3.50
2023-06-15T10:33:05.318Z,3.20
2023-06-15T10:35:47.212Z,3.20
2023-06-15T10:38:20.806Z,3.15
2023-06-15T10:40:49.354Z,3.00
2023-06-15T10:43:20.036Z,3.40
2023-06-15T10:45:47.976Z,3.10
2023-06-15T10:48:28.872Z,2.47
2023-06-15T10:51:07.238Z,3.63
2023-06-15T10:53:40.977Z,3.28
2023-06-15T10:56:14.822Z,3.43
2023-06-15T10:59:10.645Z,2.67
2023-06-15T11:01:37.345Z,2.92
2023-06-15T11:04:30.837Z,3.10
2023-06-15T11:07:02.199Z,2.70
2023-06-15T11:09:35.579Z,3.10
2023-06-15T11:12:03.113Z,2.75
2023-06-15T11:14:32.634Z,2.45
2023-06-15T11:17:04.638Z,2.50
2023-06-15T11:19:31.471Z,2.92
2023-06-15T11:22:06.064Z,2.40
2023-06-15T11:24:38.636Z,2.90
2023-06-15T11:27:06.049Z,2.58
2023-06-15T11:29:36.799Z,2.50
2023-06-15T11:32:04.670Z,2.50
2023-06-15T11:34:35.131Z,2.60
2023-06-15T11:37:02.185Z,2.50
2023-06-15T11:39:30.395Z,2.70
2023-06-15T11:41:58.991Z,2.50
2023-06-15T11:44:28.223Z,2.63
2023-06-15T11:46:59.881Z,2.20
2023-06-15T11:49:35.071Z,2.58
2023-06-15T11:52:01.708Z,2.47
2023-06-15T11:54:44.994Z,2.25
2023-06-15T11:57:16.906Z,2.30
2023-06-15T11:59:43.471Z,2.37
2023-06-15T12:02:12.389Z,2.10
2023-06-15T12:04:39.149Z,2.35
2023-06-15T12:07:06.441Z,2.08
2023-06-15T12:09:33.563Z,2.47
2023-06-15T12:12:01.283Z,2.50
2023-06-15T12:14:27.945Z,2.70
2023-06-15T12:16:54.648Z,2.28
2023-06-15T12:19:21.916Z,2.08
2023-06-15T12:21:48.938Z,2.30
2023-06-15T12:24:20.562Z,2.33
2023-06-15T12:26:52.717Z,2.85
2023-06-15T12:29:21.377Z,1.92
2023-06-15T12:31:49.695Z,2.17
2023-06-15T12:34:25.355Z,2.05
2023-06-15T12:36:56.554Z,1.83
2023-06-15T12:39:28.257Z,1.67
2023-06-15T12:41:59.501Z,1.92
2023-06-15T12:44:26.004Z,2.10
2023-06-15T12:46:52.533Z,2.10
2023-06-15T12:49:19.057Z,1.90
2023-06-15T12:51:47.804Z,2.30
2023-06-15T12:54:14.430Z,2.10
2023-06-15T12:56:41.324Z,1.83
2023-06-15T12:59:07.990Z,2.10
2023-06-15T13:01:34.926Z,2.43
2023-06-15T13:04:02.178Z,1.77
2023-06-15T13:06:28.930Z,1.90
2023-06-15T13:08:55.465Z,1.90
2023-06-15T13:11:22.165Z,1.50
2023-06-15T13:13:48.814Z,1.57
2023-06-15T13:16:15.477Z,1.60
2023-06-15T13:18:42.087Z,1.30
2023-06-15T13:21:08.783Z,1.50
2023-06-15T13:23:35.376Z,1.50
2023-06-15T13:26:01.884Z,1.20
2023-06-15T13:28:28.575Z,1.45
2023-06-15T13:30:55.324Z,1.52
2023-06-15T13:33:22.174Z,1.40
2023-06-15T13:35:48.793Z,1.63
2023-06-15T13:38:15.387Z,1.60
2023-06-15T13:40:41.944Z,1.90
2023-06-15T13:43:09.112Z,1.67
2023-06-15T13:45:35.918Z,1.70
2023-06-15T13:48:02.471Z,1.70
2023-06-15T13:50:29.176Z,1.20
2023-06-15T13:52:55.710Z,1.33
2023-06-15T13:55:22.470Z,1.42
2023-06-15T13:57:49.108Z,1.30
2023-06-15T14:00:17.409Z,1.50
2023-06-15T14:02:46.054Z,1.20
2023-06-15T14:05:14.401Z,1.10
2023-06-15T14:07:41.720Z,1.33
2023-06-15T14:10:08.970Z,1.20
2023-06-15T14:12:35.747Z,1.25
2023-06-15T14:15:03.270Z,2.50
2023-06-15T14:17:29.854Z,1.48
2023-06-15T14:19:56.452Z,1.17
2023-06-15T14:22:23.099Z,1.70
2023-06-15T14:24:49.619Z,1.70
2023-06-15T14:27:16.160Z,1.70
2023-06-15T14:29:46.806Z,2.00
2023-06-15T14:32:16.276Z,1.60
2023-06-15T14:34:43.975Z,1.63
2023-06-15T14:37:11.521Z,1.67
2023-06-15T14:39:38.201Z,1.90
2023-06-15T14:42:04.968Z,1.80
2023-06-15T14:44:31.669Z,2.22
2023-06-15T14:46:58.171Z,2.00
2023-06-15T14:49:24.706Z,2.10
2023-06-15T14:51:51.577Z,2.03
2023-06-15T14:54:18.193Z,2.10
2023-06-15T14:56:44.875Z,2.20
2023-06-15T14:59:11.526Z,2.20
2023-06-15T15:01:39.686Z,2.50
2023-06-15T15:04:06.607Z,2.10
2023-06-15T15:06:33.226Z,2.50
2023-06-15T15:08:59.854Z,2.63
2023-06-15T15:11:27.108Z,2.58
2023-06-15T15:13:53.744Z,2.30
2023-06-15T15:16:21.288Z,2.17
2023-06-15T15:18:48.057Z,2.30
2023-06-15T15:21:14.682Z,2.55
2023-06-15T15:23:42.299Z,2.25
2023-06-15T15:26:09.087Z,2.50
2023-06-15T15:28:35.781Z,2.50
2023-06-15T15:31:02.575Z,2.60
2023-06-15T15:33:29.121Z,2.40
2023-06-15T15:35:55.754Z,2.97
2023-06-15T15:38:22.556Z,2.85
2023-06-15T15:40:49.153Z,2.40
2023-06-15T15:43:18.130Z,2.47
2023-06-15T15:45:45.164Z,2.67
2023-06-15T15:48:12.086Z,2.25
2023-06-15T15:50:39.143Z,2.20
2023-06-15T15:53:06.046Z,2.40
2023-06-15T15:55:32.648Z,2.17
2023-06-15T15:58:00.159Z,2.47
2023-06-15T16:00:27.640Z,2.80
2023-06-15T16:02:54.317Z,2.13
2023-06-15T16:05:20.950Z,2.30
2023-06-15T16:07:47.626Z,2.28
2023-06-15T16:10:14.320Z,2.20
2023-06-15T16:12:41.309Z,2.10
2023-06-15T16:15:09.936Z,1.63
2023-06-15T16:17:36.946Z,1.70
2023-06-15T16:20:05.547Z,1.70
2023-06-15T16:22:33.462Z,1.80
2023-06-15T16:25:01.080Z,2.00
2023-06-15T16:27:28.337Z,1.48
2023-06-15T16:29:54.937Z,2.90
2023-06-15T16:32:21.871Z,1.92
2023-06-15T16:34:48.490Z,1.73
2023-06-15T16:37:15.227Z,1.10
2023-06-15T16:39:49.882Z,1.40
2023-06-15T16:42:18.585Z,1.50
2023-06-15T16:44:46.202Z,1.30
2023-06-15T16:47:12.844Z,1.00
2023-06-15T16:49:50.106Z,1.55
2023-06-15T16:52:18.191Z,1.15
2023-06-15T16:54:46.104Z,1.17
2023-06-15T16:57:15.010Z,1.75
2023-06-15T16:59:42.306Z,1.40
2023-06-15T17:02:14.560Z,1.50
2023-06-15T17:04:41.510Z,1.10
2023-06-15T17:07:09.065Z,1.47
2023-06-15T17:09:38.814Z,1.30
2023-06-15T17:12:05.913Z,1.85
2023-06-15T17:14:32.481Z,2.00
2023-06-15T17:16:59.051Z,1.70
2023-06-15T17:19:25.701Z,1.90
2023-06-15T17:21:52.363Z,1.58
2023-06-15T17:24:19.280Z,1.75
2023-06-15T17:26:46.346Z,2.00
2023-06-15T17:29:12.976Z,1.90
2023-06-15T17:31:39.579Z,1.60
2023-06-15T17:34:07.568Z,1.90
2023-06-15T17:36:35.242Z,1.75
2023-06-15T17:39:02.556Z,1.67
2023-06-15T17:41:29.099Z,1.40
2023-06-15T17:43:55.980Z,1.87
2023-06-15T17:46:22.630Z,1.70
2023-06-15T17:48:49.275Z,1.40
2023-06-15T17:51:16.521Z,1.20
2023-06-15T17:53:45.887Z,1.30
2023-06-15T17:56:13.278Z,1.30
2023-06-15T17:58:41.220Z,1.40
2023-06-15T18:01:11.437Z,1.42
2023-06-15T18:03:40.902Z,1.48
2023-06-15T18:06:08.612Z,1.40
2023-06-15T18:08:35.577Z,1.53
2023-06-15T18:11:02.145Z,1.27
2023-06-15T18:13:28.793Z,1.08
2023-06-15T18:15:55.636Z,1.40
2023-06-15T18:18:23.886Z,1.77
2023-06-15T18:20:51.149Z,1.40
2023-06-15T18:23:18.069Z,1.92
2023-06-15T18:25:45.087Z,1.10
2023-06-15T18:28:11.638Z,1.58
2023-06-15T18:30:38.188Z,1.88
2023-06-15T18:33:04.904Z,1.50
2023-06-15T18:35:31.591Z,2.72
2023-06-15T18:37:59.786Z,15.68
2023-06-15T18:40:27.276Z,1.50
2023-06-15T18:42:53.896Z,1.58
2023-06-15T18:45:21.625Z,1.30
2023-06-15T18:47:48.514Z,1.30
2023-06-15T18:50:15.505Z,1.45
2023-06-15T18:52:42.342Z,1.30
2023-06-15T18:55:09.319Z,1.40
2023-06-15T18:57:35.946Z,1.90
2023-06-15T19:00:04.026Z,2.05
2023-06-15T19:02:30.745Z,1.63
2023-06-15T19:04:57.407Z,1.90
2023-06-15T19:07:23.979Z,2.22
2023-06-15T19:09:50.768Z,2.20
2023-06-15T19:12:17.286Z,2.30
2023-06-15T19:14:43.973Z,2.28
2023-06-15T19:17:11.894Z,2.30
2023-06-15T19:19:39.645Z,2.30
2023-06-15T19:22:06.630Z,2.50
2023-06-15T19:24:35.133Z,2.40
2023-06-15T19:27:02.050Z,2.75
2023-06-15T19:29:28.774Z,2.90
2023-06-15T19:31:55.380Z,2.55
2023-06-15T19:34:22.210Z,2.60
2023-06-15T19:36:56.328Z,2.65
2023-06-15T19:39:23.325Z,3.03
2023-06-15T19:41:51.729Z,3.20
2023-06-15T19:44:19.172Z,2.78
2023-06-15T19:46:46.314Z,2.73
2023-06-15T19:49:12.955Z,2.92
2023-06-15T19:51:39.532Z,2.58
2023-06-15T19:54:06.122Z,2.80
2023-06-15T19:56:32.737Z,3.30
2023-06-15T19:59:02.561Z,3.07
2023-06-15T20:01:30.071Z,3.15
2023-06-15T20:03:58.449Z,3.20
2023-06-15T20:06:25.167Z,2.90
2023-06-15T20:08:51.782Z,2.88
2023-06-15T20:11:18.575Z,3.37
2023-06-15T20:13:45.144Z,3.20
2023-06-15T20:16:14.842Z,3.20
2023-06-15T20:18:44.720Z,3.40
2023-06-15T20:21:11.290Z,3.65
2023-06-15T20:23:38.094Z,3.47
2023-06-15T20:26:04.693Z,3.75
2023-06-15T20:28:33.757Z,3.45
2023-06-15T20:31:04.683Z,3.85
2023-06-15T20:33:33.335Z,3.42
2023-06-15T20:36:00.370Z,3.93
2023-06-15T20:38:31.286Z,4.03
2023-06-15T20:40:58.982Z,3.83
2023-06-15T20:43:27.177Z,4.00
2023-06-15T20:45:53.805Z,4.03
2023-06-15T20:48:20.345Z,3.53
2023-06-15T20:50:47.808Z,4.07
2023-06-15T20:53:14.656Z,3.95
2023-06-15T20:55:41.796Z,3.78
2023-06-15T20:58:09.052Z,3.75
2023-06-15T21:00:37.330Z,3.73
2023-06-15T21:03:04.658Z,4.47
2023-06-15T21:05:32.069Z,3.35
2023-06-15T21:07:59.141Z,4.00
2023-06-15T21:10:25.989Z,3.63
2023-06-15T21:12:52.744Z,4.23
2023-06-15T21:15:20.423Z,4.90
2023-06-15T21:17:47.021Z,3.90
2023-06-15T21:20:14.685Z,3.33
2023-06-15T21:22:42.290Z,3.75
2023-06-15T21:25:09.402Z,3.70
2023-06-15T21:27:36.320Z,3.83
2023-06-15T21:30:03.825Z,3.83
2023-06-15T21:32:30.720Z,3.97
2023-06-15T21:34:57.363Z,4.22
2023-06-15T21:37:23.994Z,4.37
2023-06-15T21:39:50.943Z,3.90
2023-06-15T21:42:19.644Z,4.10
2023-06-15T21:44:49.560Z,3.97
2023-06-15T21:47:19.666Z,4.55
2023-06-15T21:49:46.330Z,4.13
2023-06-15T21:52:16.162Z,4.03
2023-06-15T21:54:44.549Z,4.57
2023-06-15T21:57:14.779Z,4.13
2023-06-15T21:59:43.375Z,3.83
2023-06-15T22:02:10.512Z,4.20
2023-06-15T22:04:37.135Z,4.18
2023-06-15T22:07:04.324Z,4.28
2023-06-15T22:09:31.471Z,4.32
2023-06-15T22:11:58.122Z,3.67
2023-06-15T22:14:25.340Z,4.43
2023-06-15T22:16:53.371Z,4.00
2023-06-15T22:19:20.225Z,4.72
2023-06-15T22:21:46.989Z,4.53
2023-06-15T22:24:13.629Z,5.53
2023-06-15T22:26:44.718Z,4.43
2023-06-15T22:29:20.603Z,4.35
2023-06-15T22:31:48.539Z,5.20
2023-06-15T22:34:18.447Z,4.95
2023-06-15T22:36:45.511Z,4.97
2023-06-15T22:39:12.298Z,5.20
2023-06-15T22:41:39.518Z,4.75
2023-06-15T22:44:06.859Z,4.82
2023-06-15T22:46:34.040Z,4.93
2023-06-15T22:49:00.802Z,5.20
2023-06-15T22:51:30.395Z,4.73
2023-06-15T22:54:00.281Z,5.55
2023-06-15T22:56:27.726Z,5.00
2023-06-15T22:58:55.895Z,5.15
2023-06-15T23:01:23.707Z,5.30
2023-06-15T23:03:51.008Z,5.73
2023-06-15T23:06:20.212Z,5.45
2023-06-15T23:08:48.872Z,5.32
2023-06-15T23:11:18.509Z,5.15
2023-06-15T23:13:51.835Z,4.63
2023-06-15T23:16:19.090Z,5.03
2023-06-15T23:18:46.348Z,5.00
2023-06-15T23:21:14.362Z,5.70
2023-06-15T23:23:41.512Z,5.90
2023-06-15T23:26:16.155Z,5.72
2023-06-15T23:28:44.253Z,5.63
2023-06-15T23:31:10.894Z,6.03
2023-06-15T23:33:37.471Z,5.47
2023-06-15T23:36:04.930Z,6.13
2023-06-15T23:38:31.854Z,6.07
2023-06-15T23:40:58.629Z,5.70
2023-06-15T23:43:25.166Z,5.25
2023-06-15T23:45:51.972Z,5.72
2023-06-15T23:48:18.709Z,5.75
2023-06-15T23:50:45.273Z,6.70
2023-06-15T23:53:12.990Z,6.37
2023-06-15T23:55:43.934Z,6.28
2023-06-15T23:58:13.775Z,5.50
